sensor_id;sensor_type;location;lat;lon;timestamp;temperature;humidity
21306;DHT22;10812;51.838;5.838;2023-07-16T00:00:27;17.50;99.90
21306;DHT22;10812;51.838;5.838;2023-07-16T00:02:55;17.60;99.90
21306;DHT22;10812;51.838;5.838;2023-07-16T00:05:24;17.60;99.90
21306;DHT22;10812;51.838;5.838;2023-07-16T00:07:52;17.60;99.90
21306;DHT22;10812;51.838;5.838;2023-07-16T00:10:20;17.70;99.90
21306;DHT22;10812;51.838;5.838;2023-07-16T00:12:49;17.70;99.90
21306;DHT22;10812;51.838;5.838;2023-07-16T00:15:18;17.70;99.90
21306;DHT22;10812;51.838;5.838;2023-07-16T00:17:46;17.70;99.90
21306;DHT22;10812;51.838;5.838;2023-07-16T00:20:14;17.70;99.90
21306;DHT22;10812;51.838;5.838;2023-07-16T00:22:42;17.60;99.90
21306;DHT22;10812;51.838;5.838;2023-07-16T00:25:10;17.60;99.90
21306;DHT22;10812;51.838;5.838;2023-07-16T00:27:38;17.60;99.90
21306;DHT22;10812;51.838;5.838;2023-07-16T00:30:08;17.50;99.90
21306;DHT22;10812;51.838;5.838;2023-07-16T00:32:37;17.40;99.90
21306;DHT22;10812;51.838;5.838;2023-07-16T00:35:05;17.40;99.90
21306;DHT22;10812;51.838;5.838;2023-07-16T00:37:34;17.30;99.90
21306;DHT22;10812;51.838;5.838;2023-07-16T00:40:03;17.30;99.90
21306;DHT22;10812;51.838;5.838;2023-07-16T00:42:31;17.20;99.90
21306;DHT22;10812;51.838;5.838;2023-07-16T00:44:59;17.20;99.90
21306;DHT22;10812;51.838;5.838;2023-07-16T00:47:29;17.20;99.90
21306;DHT22;10812;51.838;5.838;2023-07-16T00:49:58;17.30;99.90
21306;DHT22;10812;51.838;5.838;2023-07-16T00:52:26;17.30;99.90
21306;DHT22;10812;51.838;5.838;2023-07-16T00:54:55;17.20;99.90
21306;DHT22;10812;51.838;5.838;2023-07-16T00:57:23;17.20;99.90
21306;DHT22;10812;51.838;5.838;2023-07-16T00:59:52;17.20;99.90
21306;DHT22;10812;51.838;5.838;2023-07-16T01:02:20;17.10;99.90
21306;DHT22;10812;51.838;5.838;2023-07-16T01:04:50;17.10;99.90
21306;DHT22;10812;51.838;5.838;2023-07-16T01:07:18;17.00;99.90
21306;DHT22;10812;51.838;5.838;2023-07-16T01:09:49;17.00;99.90
21306;DHT22;10812;51.838;5.838;2023-07-16T01:12:19;16.90;99.90
21306;DHT22;10812;51.838;5.838;2023-07-16T01:14:49;16.90;99.90
21306;DHT22;10812;51.838;5.838;2023-07-16T01:17:18;16.80;99.90
21306;DHT22;10812;51.838;5.838;2023-07-16T01:19:46;16.80;99.90
21306;DHT22;10812;51.838;5.838;2023-07-16T01:22:32;16.70;99.90
21306;DHT22;10812;51.838;5.838;2023-07-16T01:25:10;16.70;99.90
21306;DHT22;10812;51.838;5.838;2023-07-16T01:28:12;16.60;99.90
21306;DHT22;10812;51.838;5.838;2023-07-16T01:30:44;16.60;99.90
21306;DHT22;10812;51.838;5.838;2023-07-16T01:33:13;16.50;99.90
21306;DHT22;10812;51.838;5.838;2023-07-16T01:35:43;16.40;99.90
21306;DHT22;10812;51.838;5.838;2023-07-16T01:38:11;16.40;99.90
21306;DHT22;10812;51.838;5.838;2023-07-16T01:40:41;16.30;99.90
21306;DHT22;10812;51.838;5.838;2023-07-16T01:43:09;16.20;99.90
21306;DHT22;10812;51.838;5.838;2023-07-16T01:45:37;16.10;99.90
21306;DHT22;10812;51.838;5.838;2023-07-16T01:48:14;16.00;99.90
21306;DHT22;10812;51.838;5.838;2023-07-16T01:50:45;16.00;99.90
21306;DHT22;10812;51.838;5.838;2023-07-16T01:53:13;15.90;99.90
21306;DHT22;10812;51.838;5.838;2023-07-16T01:55:41;15.80;99.90
21306;DHT22;10812;51.838;5.838;2023-07-16T01:58:09;15.70;99.90
21306;DHT22;10812;51.838;5.838;2023-07-16T02:00:38;15.70;99.90
21306;DHT22;10812;51.838;5.838;2023-07-16T02:03:08;15.70;99.90
21306;DHT22;10812;51.838;5.838;2023-07-16T02:05:36;15.70;99.90
21306;DHT22;10812;51.838;5.838;2023-07-16T02:08:04;15.70;99.90
21306;DHT22;10812;51.838;5.838;2023-07-16T02:10:32;15.60;99.90
21306;DHT22;10812;51.838;5.838;2023-07-16T02:13:01;15.60;99.90
21306;DHT22;10812;51.838;5.838;2023-07-16T02:15:29;15.60;99.90
21306;DHT22;10812;51.838;5.838;2023-07-16T02:17:57;15.60;99.90
21306;DHT22;10812;51.838;5.838;2023-07-16T02:20:27;15.60;99.90
21306;DHT22;10812;51.838;5.838;2023-07-16T02:22:55;15.60;99.90
21306;DHT22;10812;51.838;5.838;2023-07-16T02:25:23;15.60;99.90
21306;DHT22;10812;51.838;5.838;2023-07-16T02:27:52;15.60;99.90
21306;DHT22;10812;51.838;5.838;2023-07-16T02:30:20;15.60;99.90
21306;DHT22;10812;51.838;5.838;2023-07-16T02:32:48;15.70;99.90
21306;DHT22;10812;51.838;5.838;2023-07-16T02:35:16;15.60;99.90
21306;DHT22;10812;51.838;5.838;2023-07-16T02:37:46;15.60;99.90
21306;DHT22;10812;51.838;5.838;2023-07-16T02:40:14;15.60;99.90
21306;DHT22;10812;51.838;5.838;2023-07-16T02:42:42;15.60;99.90
21306;DHT22;10812;51.838;5.838;2023-07-16T02:45:10;15.60;99.90
21306;DHT22;10812;51.838;5.838;2023-07-16T02:47:39;15.50;99.90
21306;DHT22;10812;51.838;5.838;2023-07-16T02:50:07;15.50;99.90
21306;DHT22;10812;51.838;5.838;2023-07-16T02:52:35;15.50;99.90
21306;DHT22;10812;51.838;5.838;2023-07-16T02:55:05;15.50;99.90
21306;DHT22;10812;51.838;5.838;2023-07-16T02:57:34;15.50;99.90
21306;DHT22;10812;51.838;5.838;2023-07-16T03:00:02;15.50;99.90
21306;DHT22;10812;51.838;5.838;2023-07-16T03:07:48;15.50;99.90
21306;DHT22;10812;51.838;5.838;2023-07-16T03:10:17;15.60;99.90
21306;DHT22;10812;51.838;5.838;2023-07-16T03:12:45;15.60;99.90
21306;DHT22;10812;51.838;5.838;2023-07-16T03:15:13;15.60;99.90
21306;DHT22;10812;51.838;5.838;2023-07-16T03:17:41;15.60;99.90
21306;DHT22;10812;51.838;5.838;2023-07-16T03:20:11;15.70;99.90
21306;DHT22;10812;51.838;5.838;2023-07-16T03:22:39;15.60;99.90
21306;DHT22;10812;51.838;5.838;2023-07-16T03:25:08;15.70;99.90
21306;DHT22;10812;51.838;5.838;2023-07-16T03:27:37;15.60;99.90
21306;DHT22;10812;51.838;5.838;2023-07-16T03:30:07;15.60;99.90
21306;DHT22;10812;51.838;5.838;2023-07-16T03:32:35;15.60;99.90
21306;DHT22;10812;51.838;5.838;2023-07-16T03:35:18;15.70;99.90
21306;DHT22;10812;51.838;5.838;2023-07-16T03:37:50;15.60;99.90
21306;DHT22;10812;51.838;5.838;2023-07-16T03:40:21;15.60;99.90
21306;DHT22;10812;51.838;5.838;2023-07-16T03:42:51;15.60;99.90
21306;DHT22;10812;51.838;5.838;2023-07-16T03:45:19;15.60;99.90
21306;DHT22;10812;51.838;5.838;2023-07-16T03:47:47;15.70;99.90
21306;DHT22;10812;51.838;5.838;2023-07-16T03:50:15;15.60;99.90
21306;DHT22;10812;51.838;5.838;2023-07-16T03:52:44;15.60;99.90
21306;DHT22;10812;51.838;5.838;2023-07-16T03:55:30;15.60;99.90
21306;DHT22;10812;51.838;5.838;2023-07-16T03:58:00;15.60;99.90
21306;DHT22;10812;51.838;5.838;2023-07-16T04:00:28;15.60;99.90
21306;DHT22;10812;51.838;5.838;2023-07-16T04:02:56;15.60;99.90
21306;DHT22;10812;51.838;5.838;2023-07-16T04:09:12;15.70;99.90
21306;DHT22;10812;51.838;5.838;2023-07-16T04:11:40;15.80;99.90
21306;DHT22;10812;51.838;5.838;2023-07-16T04:14:09;15.80;99.90
21306;DHT22;10812;51.838;5.838;2023-07-16T04:16:37;15.80;99.90
21306;DHT22;10812;51.838;5.838;2023-07-16T04:19:05;15.90;99.90
21306;DHT22;10812;51.838;5.838;2023-07-16T04:21:34;15.90;99.90
21306;DHT22;10812;51.838;5.838;2023-07-16T04:24:02;15.90;99.90
21306;DHT22;10812;51.838;5.838;2023-07-16T04:26:30;16.00;99.90
21306;DHT22;10812;51.838;5.838;2023-07-16T04:28:58;16.00;99.90
21306;DHT22;10812;51.838;5.838;2023-07-16T04:31:27;16.00;99.90
21306;DHT22;10812;51.838;5.838;2023-07-16T04:33:56;16.00;99.90
21306;DHT22;10812;51.838;5.838;2023-07-16T04:36:24;16.00;99.90
21306;DHT22;10812;51.838;5.838;2023-07-16T04:38:52;16.00;99.90
21306;DHT22;10812;51.838;5.838;2023-07-16T04:41:20;16.10;99.90
21306;DHT22;10812;51.838;5.838;2023-07-16T04:43:49;16.30;99.90
21306;DHT22;10812;51.838;5.838;2023-07-16T04:46:16;16.40;99.90
21306;DHT22;10812;51.838;5.838;2023-07-16T04:48:46;16.40;99.90
21306;DHT22;10812;51.838;5.838;2023-07-16T04:51:15;16.40;99.90
21306;DHT22;10812;51.838;5.838;2023-07-16T04:53:43;16.40;99.90
21306;DHT22;10812;51.838;5.838;2023-07-16T04:56:11;16.40;99.90
21306;DHT22;10812;51.838;5.838;2023-07-16T04:58:40;16.40;99.90
21306;DHT22;10812;51.838;5.838;2023-07-16T05:01:09;16.30;99.90
21306;DHT22;10812;51.838;5.838;2023-07-16T05:03:37;16.30;99.90
21306;DHT22;10812;51.838;5.838;2023-07-16T05:06:07;16.40;99.90
21306;DHT22;10812;51.838;5.838;2023-07-16T05:08:35;16.40;99.90
21306;DHT22;10812;51.838;5.838;2023-07-16T05:11:03;16.40;99.90
21306;DHT22;10812;51.838;5.838;2023-07-16T05:13:31;16.40;99.90
21306;DHT22;10812;51.838;5.838;2023-07-16T05:15:59;16.50;99.90
21306;DHT22;10812;51.838;5.838;2023-07-16T05:18:27;16.50;99.90
21306;DHT22;10812;51.838;5.838;2023-07-16T05:20:55;16.50;99.90
21306;DHT22;10812;51.838;5.838;2023-07-16T05:23:25;16.50;99.90
21306;DHT22;10812;51.838;5.838;2023-07-16T05:25:53;16.50;99.90
21306;DHT22;10812;51.838;5.838;2023-07-16T05:28:21;16.60;99.90
21306;DHT22;10812;51.838;5.838;2023-07-16T05:30:57;16.60;99.90
21306;DHT22;10812;51.838;5.838;2023-07-16T05:33:25;16.60;99.90
21306;DHT22;10812;51.838;5.838;2023-07-16T05:35:54;16.60;99.90
21306;DHT22;10812;51.838;5.838;2023-07-16T05:38:22;16.70;99.90
21306;DHT22;10812;51.838;5.838;2023-07-16T05:40:51;16.70;99.90
21306;DHT22;10812;51.838;5.838;2023-07-16T05:43:19;16.70;99.90
21306;DHT22;10812;51.838;5.838;2023-07-16T05:45:48;16.80;99.90
21306;DHT22;10812;51.838;5.838;2023-07-16T05:48:16;16.90;99.90
21306;DHT22;10812;51.838;5.838;2023-07-16T05:50:44;16.90;99.90
21306;DHT22;10812;51.838;5.838;2023-07-16T05:53:12;16.90;99.90
21306;DHT22;10812;51.838;5.838;2023-07-16T05:55:41;17.00;99.90
21306;DHT22;10812;51.838;5.838;2023-07-16T05:58:10;17.00;99.90
21306;DHT22;10812;51.838;5.838;2023-07-16T06:00:38;17.10;99.90
21306;DHT22;10812;51.838;5.838;2023-07-16T06:03:07;17.20;99.90
21306;DHT22;10812;51.838;5.838;2023-07-16T06:05:35;17.30;99.90
21306;DHT22;10812;51.838;5.838;2023-07-16T06:08:03;17.40;99.90
21306;DHT22;10812;51.838;5.838;2023-07-16T06:10:33;17.50;99.90
21306;DHT22;10812;51.838;5.838;2023-07-16T06:13:02;17.60;99.90
21306;DHT22;10812;51.838;5.838;2023-07-16T06:15:31;18.00;99.90
21306;DHT22;10812;51.838;5.838;2023-07-16T06:17:59;20.10;99.90
21306;DHT22;10812;51.838;5.838;2023-07-16T06:20:27;22.20;99.90
21306;DHT22;10812;51.838;5.838;2023-07-16T06:22:56;23.60;99.90
21306;DHT22;10812;51.838;5.838;2023-07-16T06:25:24;24.60;99.90
21306;DHT22;10812;51.838;5.838;2023-07-16T06:27:52;25.30;99.90
21306;DHT22;10812;51.838;5.838;2023-07-16T06:30:20;25.90;99.90
21306;DHT22;10812;51.838;5.838;2023-07-16T06:32:49;26.50;99.90
21306;DHT22;10812;51.838;5.838;2023-07-16T06:35:18;27.20;99.90
21306;DHT22;10812;51.838;5.838;2023-07-16T06:52:58;27.40;97.40
21306;DHT22;10812;51.838;5.838;2023-07-16T06:55:26;28.60;96.00
21306;DHT22;10812;51.838;5.838;2023-07-16T06:57:54;28.60;95.20
21306;DHT22;10812;51.838;5.838;2023-07-16T07:00:22;28.30;95.20
21306;DHT22;10812;51.838;5.838;2023-07-16T07:02:50;28.30;95.50
21306;DHT22;10812;51.838;5.838;2023-07-16T07:05:18;28.40;95.30
21306;DHT22;10812;51.838;5.838;2023-07-16T07:07:47;28.30;96.00
21306;DHT22;10812;51.838;5.838;2023-07-16T07:10:16;28.60;94.70
21306;DHT22;10812;51.838;5.838;2023-07-16T07:12:44;28.60;95.00
21306;DHT22;10812;51.838;5.838;2023-07-16T07:15:12;28.70;94.30
21306;DHT22;10812;51.838;5.838;2023-07-16T07:17:40;28.50;94.90
21306;DHT22;10812;51.838;5.838;2023-07-16T07:20:10;29.40;93.70
21306;DHT22;10812;51.838;5.838;2023-07-16T07:22:39;29.40;93.90
21306;DHT22;10812;51.838;5.838;2023-07-16T07:25:07;29.30;93.30
21306;DHT22;10812;51.838;5.838;2023-07-16T07:27:36;29.40;93.40
21306;DHT22;10812;51.838;5.838;2023-07-16T07:30:06;29.40;93.00
21306;DHT22;10812;51.838;5.838;2023-07-16T07:32:37;29.90;93.30
21306;DHT22;10812;51.838;5.838;2023-07-16T07:35:05;29.90;92.40
21306;DHT22;10812;51.838;5.838;2023-07-16T07:37:33;29.80;92.90
21306;DHT22;10812;51.838;5.838;2023-07-16T07:40:02;29.90;92.40
21306;DHT22;10812;51.838;5.838;2023-07-16T07:42:30;29.50;92.30
21306;DHT22;10812;51.838;5.838;2023-07-16T07:45:00;29.30;92.80
21306;DHT22;10812;51.838;5.838;2023-07-16T07:47:28;29.30;93.20
21306;DHT22;10812;51.838;5.838;2023-07-16T07:49:56;29.60;93.00
21306;DHT22;10812;51.838;5.838;2023-07-16T07:52:26;29.50;91.90
21306;DHT22;10812;51.838;5.838;2023-07-16T07:54:54;28.70;93.10
21306;DHT22;10812;51.838;5.838;2023-07-16T07:57:22;28.60;93.10
21306;DHT22;10812;51.838;5.838;2023-07-16T07:59:50;28.20;93.40
21306;DHT22;10812;51.838;5.838;2023-07-16T08:02:24;28.90;93.60
21306;DHT22;10812;51.838;5.838;2023-07-16T08:04:53;29.50;92.60
21306;DHT22;10812;51.838;5.838;2023-07-16T08:07:22;30.20;92.10
21306;DHT22;10812;51.838;5.838;2023-07-16T08:09:50;29.90;91.30
21306;DHT22;10812;51.838;5.838;2023-07-16T08:12:18;29.60;92.30
21306;DHT22;10812;51.838;5.838;2023-07-16T08:14:47;29.50;92.00
21306;DHT22;10812;51.838;5.838;2023-07-16T08:17:15;29.80;92.40
21306;DHT22;10812;51.838;5.838;2023-07-16T08:19:44;30.30;91.00
21306;DHT22;10812;51.838;5.838;2023-07-16T08:22:12;29.90;92.00
21306;DHT22;10812;51.838;5.838;2023-07-16T08:24:40;30.10;91.90
21306;DHT22;10812;51.838;5.838;2023-07-16T08:27:08;30.10;91.40
21306;DHT22;10812;51.838;5.838;2023-07-16T08:29:36;29.60;91.50
21306;DHT22;10812;51.838;5.838;2023-07-16T08:32:05;29.20;91.70
21306;DHT22;10812;51.838;5.838;2023-07-16T08:34:33;29.10;91.80
21306;DHT22;10812;51.838;5.838;2023-07-16T08:37:03;29.30;92.10
21306;DHT22;10812;51.838;5.838;2023-07-16T08:39:31;29.30;91.90
21306;DHT22;10812;51.838;5.838;2023-07-16T08:41:59;29.90;92.00
21306;DHT22;10812;51.838;5.838;2023-07-16T08:44:29;30.00;91.50
21306;DHT22;10812;51.838;5.838;2023-07-16T08:46:57;29.90;91.20
21306;DHT22;10812;51.838;5.838;2023-07-16T08:49:26;29.40;92.10
21306;DHT22;10812;51.838;5.838;2023-07-16T08:51:57;29.20;91.90
21306;DHT22;10812;51.838;5.838;2023-07-16T08:54:26;29.70;92.00
21306;DHT22;10812;51.838;5.838;2023-07-16T08:56:56;30.30;91.40
21306;DHT22;10812;51.838;5.838;2023-07-16T08:59:25;30.10;91.10
21306;DHT22;10812;51.838;5.838;2023-07-16T09:01:54;29.40;91.80
21306;DHT22;10812;51.838;5.838;2023-07-16T09:04:24;30.10;91.30
21306;DHT22;10812;51.838;5.838;2023-07-16T09:06:52;29.30;91.30
21306;DHT22;10812;51.838;5.838;2023-07-16T09:09:21;28.40;92.90
21306;DHT22;10812;51.838;5.838;2023-07-16T09:11:51;27.90;92.90
21306;DHT22;10812;51.838;5.838;2023-07-16T09:14:20;28.10;93.40
21306;DHT22;10812;51.838;5.838;2023-07-16T09:16:49;27.60;93.80
21306;DHT22;10812;51.838;5.838;2023-07-16T09:19:17;27.30;94.20
21306;DHT22;10812;51.838;5.838;2023-07-16T09:21:46;27.00;94.90
21306;DHT22;10812;51.838;5.838;2023-07-16T09:24:15;27.60;93.80
21306;DHT22;10812;51.838;5.838;2023-07-16T09:26:54;27.70;93.60
21306;DHT22;10812;51.838;5.838;2023-07-16T09:29:25;28.10;94.00
21306;DHT22;10812;51.838;5.838;2023-07-16T09:31:55;27.80;93.40
21306;DHT22;10812;51.838;5.838;2023-07-16T09:34:27;27.40;94.00
21306;DHT22;10812;51.838;5.838;2023-07-16T09:36:56;28.00;93.80
21306;DHT22;10812;51.838;5.838;2023-07-16T09:39:25;29.10;93.00
21306;DHT22;10812;51.838;5.838;2023-07-16T09:41:55;29.20;91.80
21306;DHT22;10812;51.838;5.838;2023-07-16T09:44:26;28.60;93.10
21306;DHT22;10812;51.838;5.838;2023-07-16T09:46:57;29.40;92.80
21306;DHT22;10812;51.838;5.838;2023-07-16T09:49:28;29.20;91.70
21306;DHT22;10812;51.838;5.838;2023-07-16T09:51:57;28.10;92.80
21306;DHT22;10812;51.838;5.838;2023-07-16T09:54:26;27.40;93.30
21306;DHT22;10812;51.838;5.838;2023-07-16T09:56:59;26.50;94.30
21306;DHT22;10812;51.838;5.838;2023-07-16T09:59:30;25.80;95.20
21306;DHT22;10812;51.838;5.838;2023-07-16T10:01:59;26.30;95.80
21306;DHT22;10812;51.838;5.838;2023-07-16T10:04:37;26.60;95.90
21306;DHT22;10812;51.838;5.838;2023-07-16T10:07:06;26.70;94.70
21306;DHT22;10812;51.838;5.838;2023-07-16T10:09:36;26.30;95.50
21306;DHT22;10812;51.838;5.838;2023-07-16T10:12:14;25.80;95.50
21306;DHT22;10812;51.838;5.838;2023-07-16T10:14:45;25.60;96.70
21306;DHT22;10812;51.838;5.838;2023-07-16T10:17:49;25.50;96.90
21306;DHT22;10812;51.838;5.838;2023-07-16T10:20:28;25.50;97.80
21306;DHT22;10812;51.838;5.838;2023-07-16T10:22:57;25.60;97.80
21306;DHT22;10812;51.838;5.838;2023-07-16T10:25:26;25.50;97.40
21306;DHT22;10812;51.838;5.838;2023-07-16T10:27:58;25.40;97.10
21306;DHT22;10812;51.838;5.838;2023-07-16T10:30:26;25.20;97.30
21306;DHT22;10812;51.838;5.838;2023-07-16T10:32:54;24.90;98.10
21306;DHT22;10812;51.838;5.838;2023-07-16T10:35:22;24.60;98.30
21306;DHT22;10812;51.838;5.838;2023-07-16T10:37:51;24.30;99.80
21306;DHT22;10812;51.838;5.838;2023-07-16T10:40:19;24.30;99.90
21306;DHT22;10812;51.838;5.838;2023-07-16T10:42:47;24.50;99.90
21306;DHT22;10812;51.838;5.838;2023-07-16T10:45:16;24.60;99.90
21306;DHT22;10812;51.838;5.838;2023-07-16T10:47:53;25.00;99.00
21306;DHT22;10812;51.838;5.838;2023-07-16T10:50:21;25.20;98.50
21306;DHT22;10812;51.838;5.838;2023-07-16T10:52:51;25.40;97.60
21306;DHT22;10812;51.838;5.838;2023-07-16T10:55:20;25.70;98.30
21306;DHT22;10812;51.838;5.838;2023-07-16T10:57:49;26.30;97.40
21306;DHT22;10812;51.838;5.838;2023-07-16T11:00:18;26.60;95.90
21306;DHT22;10812;51.838;5.838;2023-07-16T11:02:48;26.40;96.10
21306;DHT22;10812;51.838;5.838;2023-07-16T11:05:18;26.20;96.00
21306;DHT22;10812;51.838;5.838;2023-07-16T11:07:47;25.70;96.80
21306;DHT22;10812;51.838;5.838;2023-07-16T11:10:23;25.70;97.10
21306;DHT22;10812;51.838;5.838;2023-07-16T11:12:51;25.70;97.70
21306;DHT22;10812;51.838;5.838;2023-07-16T11:22:26;25.30;97.70
21306;DHT22;10812;51.838;5.838;2023-07-16T11:24:58;24.80;98.40
21306;DHT22;10812;51.838;5.838;2023-07-16T11:27:30;24.60;99.10
21306;DHT22;10812;51.838;5.838;2023-07-16T11:29:59;24.40;99.40
21306;DHT22;10812;51.838;5.838;2023-07-16T11:32:30;24.10;99.90
21306;DHT22;10812;51.838;5.838;2023-07-16T11:35:00;23.90;99.60
21306;DHT22;10812;51.838;5.838;2023-07-16T11:37:31;23.80;99.90
21306;DHT22;10812;51.838;5.838;2023-07-16T11:40:03;23.60;99.90
21306;DHT22;10812;51.838;5.838;2023-07-16T11:42:33;23.40;99.90
21306;DHT22;10812;51.838;5.838;2023-07-16T11:45:02;23.40;99.90
21306;DHT22;10812;51.838;5.838;2023-07-16T11:47:32;23.30;99.90
21306;DHT22;10812;51.838;5.838;2023-07-16T11:50:05;23.50;99.90
21306;DHT22;10812;51.838;5.838;2023-07-16T11:52:35;23.60;99.90
21306;DHT22;10812;51.838;5.838;2023-07-16T11:55:04;23.90;99.90
21306;DHT22;10812;51.838;5.838;2023-07-16T11:57:32;24.20;99.90
21306;DHT22;10812;51.838;5.838;2023-07-16T12:00:00;24.40;99.90
21306;DHT22;10812;51.838;5.838;2023-07-16T12:02:28;24.40;99.90
21306;DHT22;10812;51.838;5.838;2023-07-16T12:04:56;24.50;99.90
21306;DHT22;10812;51.838;5.838;2023-07-16T12:07:31;24.70;99.90
21306;DHT22;10812;51.838;5.838;2023-07-16T12:10:04;25.10;99.90
21306;DHT22;10812;51.838;5.838;2023-07-16T12:12:33;25.10;99.90
21306;DHT22;10812;51.838;5.838;2023-07-16T12:15:05;25.10;99.90
21306;DHT22;10812;51.838;5.838;2023-07-16T12:17:34;25.30;99.90
21306;DHT22;10812;51.838;5.838;2023-07-16T12:20:02;24.90;99.90
21306;DHT22;10812;51.838;5.838;2023-07-16T12:22:31;24.50;99.90
21306;DHT22;10812;51.838;5.838;2023-07-16T12:24:59;24.50;99.90
21306;DHT22;10812;51.838;5.838;2023-07-16T12:27:29;24.50;99.90
21306;DHT22;10812;51.838;5.838;2023-07-16T12:29:57;24.60;99.90
21306;DHT22;10812;51.838;5.838;2023-07-16T12:32:25;24.70;99.90
21306;DHT22;10812;51.838;5.838;2023-07-16T12:34:53;24.60;99.90
21306;DHT22;10812;51.838;5.838;2023-07-16T12:37:21;24.70;99.90
21306;DHT22;10812;51.838;5.838;2023-07-16T12:39:49;24.50;99.90
21306;DHT22;10812;51.838;5.838;2023-07-16T12:57:29;24.90;99.90
21306;DHT22;10812;51.838;5.838;2023-07-16T12:59:59;25.00;99.90
21306;DHT22;10812;51.838;5.838;2023-07-16T13:02:28;24.50;99.90
21306;DHT22;10812;51.838;5.838;2023-07-16T13:04:56;24.40;99.90
21306;DHT22;10812;51.838;5.838;2023-07-16T13:07:24;24.30;99.90
21306;DHT22;10812;51.838;5.838;2023-07-16T13:09:52;24.20;99.90
21306;DHT22;10812;51.838;5.838;2023-07-16T13:12:41;24.30;99.90
21306;DHT22;10812;51.838;5.838;2023-07-16T13:15:10;24.30;99.90
21306;DHT22;10812;51.838;5.838;2023-07-16T13:17:39;24.50;99.90
21306;DHT22;10812;51.838;5.838;2023-07-16T13:20:08;24.50;99.90
21306;DHT22;10812;51.838;5.838;2023-07-16T13:22:36;24.50;99.90
21306;DHT22;10812;51.838;5.838;2023-07-16T13:25:05;24.60;99.90
21306;DHT22;10812;51.838;5.838;2023-07-16T13:27:33;24.70;99.90
21306;DHT22;10812;51.838;5.838;2023-07-16T13:30:03;24.90;99.90
21306;DHT22;10812;51.838;5.838;2023-07-16T13:32:31;25.00;99.90
21306;DHT22;10812;51.838;5.838;2023-07-16T13:34:59;24.90;99.90
21306;DHT22;10812;51.838;5.838;2023-07-16T13:37:27;24.90;99.90
21306;DHT22;10812;51.838;5.838;2023-07-16T13:39:55;24.90;99.90
21306;DHT22;10812;51.838;5.838;2023-07-16T13:42:23;24.60;99.90
21306;DHT22;10812;51.838;5.838;2023-07-16T13:44:51;24.50;99.90
21306;DHT22;10812;51.838;5.838;2023-07-16T13:47:20;24.60;99.90
21306;DHT22;10812;51.838;5.838;2023-07-16T13:49:50;24.80;99.90
21306;DHT22;10812;51.838;5.838;2023-07-16T13:52:18;24.80;99.90
21306;DHT22;10812;51.838;5.838;2023-07-16T13:54:46;24.70;99.90
21306;DHT22;10812;51.838;5.838;2023-07-16T13:57:14;24.60;99.90
21306;DHT22;10812;51.838;5.838;2023-07-16T13:59:42;24.70;99.90
21306;DHT22;10812;51.838;5.838;2023-07-16T14:02:10;24.80;99.90
21306;DHT22;10812;51.838;5.838;2023-07-16T14:04:40;25.00;99.90
21306;DHT22;10812;51.838;5.838;2023-07-16T14:07:08;25.30;99.90
21306;DHT22;10812;51.838;5.838;2023-07-16T14:09:36;25.30;99.90
21306;DHT22;10812;51.838;5.838;2023-07-16T14:12:05;25.30;99.90
21306;DHT22;10812;51.838;5.838;2023-07-16T14:14:33;25.10;99.90
21306;DHT22;10812;51.838;5.838;2023-07-16T14:17:01;25.00;99.90
21306;DHT22;10812;51.838;5.838;2023-07-16T14:19:30;24.80;99.90
21306;DHT22;10812;51.838;5.838;2023-07-16T14:21:59;24.90;99.90
21306;DHT22;10812;51.838;5.838;2023-07-16T14:24:27;25.20;99.90
21306;DHT22;10812;51.838;5.838;2023-07-16T14:26:57;25.40;99.70
21306;DHT22;10812;51.838;5.838;2023-07-16T14:29:25;25.50;99.40
21306;DHT22;10812;51.838;5.838;2023-07-16T14:31:56;25.60;99.70
21306;DHT22;10812;51.838;5.838;2023-07-16T14:34:25;25.50;99.50
21306;DHT22;10812;51.838;5.838;2023-07-16T14:36:53;25.30;98.70
21306;DHT22;10812;51.838;5.838;2023-07-16T14:39:23;25.00;99.30
21306;DHT22;10812;51.838;5.838;2023-07-16T14:41:51;24.70;99.90
21306;DHT22;10812;51.838;5.838;2023-07-16T14:44:20;24.50;99.90
21306;DHT22;10812;51.838;5.838;2023-07-16T14:46:48;24.40;99.90
21306;DHT22;10812;51.838;5.838;2023-07-16T14:49:16;24.40;99.90
21306;DHT22;10812;51.838;5.838;2023-07-16T14:51:45;24.50;99.90
21306;DHT22;10812;51.838;5.838;2023-07-16T14:54:13;24.60;99.90
21306;DHT22;10812;51.838;5.838;2023-07-16T14:56:42;24.50;99.90
21306;DHT22;10812;51.838;5.838;2023-07-16T14:59:10;24.50;99.90
21306;DHT22;10812;51.838;5.838;2023-07-16T15:01:38;24.50;99.90
21306;DHT22;10812;51.838;5.838;2023-07-16T15:04:06;24.40;99.90
21306;DHT22;10812;51.838;5.838;2023-07-16T15:06:34;24.30;99.90
21306;DHT22;10812;51.838;5.838;2023-07-16T15:09:03;24.30;99.90
21306;DHT22;10812;51.838;5.838;2023-07-16T15:11:31;24.20;99.90
21306;DHT22;10812;51.838;5.838;2023-07-16T15:14:02;24.10;99.90
21306;DHT22;10812;51.838;5.838;2023-07-16T15:16:30;23.80;99.90
21306;DHT22;10812;51.838;5.838;2023-07-16T15:18:58;23.70;99.90
21306;DHT22;10812;51.838;5.838;2023-07-16T15:21:27;23.80;99.90
21306;DHT22;10812;51.838;5.838;2023-07-16T15:23:55;23.70;99.90
21306;DHT22;10812;51.838;5.838;2023-07-16T15:26:23;23.60;99.90
21306;DHT22;10812;51.838;5.838;2023-07-16T15:28:51;23.50;99.90
21306;DHT22;10812;51.838;5.838;2023-07-16T15:31:20;23.20;99.90
21306;DHT22;10812;51.838;5.838;2023-07-16T15:33:54;22.50;99.90
21306;DHT22;10812;51.838;5.838;2023-07-16T15:36:22;21.80;99.90
21306;DHT22;10812;51.838;5.838;2023-07-16T15:38:51;21.50;99.90
21306;DHT22;10812;51.838;5.838;2023-07-16T15:41:19;21.40;99.90
21306;DHT22;10812;51.838;5.838;2023-07-16T15:43:52;21.40;99.90
21306;DHT22;10812;51.838;5.838;2023-07-16T15:46:21;21.40;99.90
21306;DHT22;10812;51.838;5.838;2023-07-16T15:48:49;21.50;99.90
21306;DHT22;10812;51.838;5.838;2023-07-16T15:51:17;21.90;99.90
21306;DHT22;10812;51.838;5.838;2023-07-16T15:53:46;22.20;99.90
21306;DHT22;10812;51.838;5.838;2023-07-16T15:56:14;22.60;99.90
21306;DHT22;10812;51.838;5.838;2023-07-16T15:58:42;22.80;99.90
21306;DHT22;10812;51.838;5.838;2023-07-16T16:01:10;22.90;99.90
21306;DHT22;10812;51.838;5.838;2023-07-16T16:03:39;23.00;99.90
21306;DHT22;10812;51.838;5.838;2023-07-16T16:06:11;23.00;99.90
21306;DHT22;10812;51.838;5.838;2023-07-16T16:08:39;23.20;99.90
21306;DHT22;10812;51.838;5.838;2023-07-16T16:11:07;23.20;99.90
21306;DHT22;10812;51.838;5.838;2023-07-16T16:13:35;23.20;99.90
21306;DHT22;10812;51.838;5.838;2023-07-16T16:16:03;23.20;99.90
21306;DHT22;10812;51.838;5.838;2023-07-16T16:18:31;23.00;99.90
21306;DHT22;10812;51.838;5.838;2023-07-16T16:21:01;23.00;99.90
21306;DHT22;10812;51.838;5.838;2023-07-16T16:23:29;23.00;99.90
21306;DHT22;10812;51.838;5.838;2023-07-16T16:25:58;23.00;99.90
21306;DHT22;10812;51.838;5.838;2023-07-16T16:28:26;23.00;99.90